sensor_id;sensor_type;location;lat;lon;timestamp;temperature;humidity
7000;DHT22;3540;53.242;10.408;2022-11-28T00:00:16;5.40;99.90
7000;DHT22;3540;53.242;10.408;2022-11-28T00:02:42;5.50;99.90
7000;DHT22;3540;53.242;10.408;2022-11-28T00:05:11;5.50;99.90
7000;DHT22;3540;53.242;10.408;2022-11-28T00:07:37;5.40;99.90
7000;DHT22;3540;53.242;10.408;2022-11-28T00:10:03;5.50;99.90
7000;DHT22;3540;53.242;10.408;2022-11-28T00:12:29;5.40;99.90
7000;DHT22;3540;53.242;10.408;2022-11-28T00:14:55;5.40;99.90
7000;DHT22;3540;53.242;10.408;2022-11-28T00:17:21;5.40;99.90
7000;DHT22;3540;53.242;10.408;2022-11-28T00:19:46;5.40;99.90
7000;DHT22;3540;53.242;10.408;2022-11-28T00:22:12;5.50;99.90
7000;DHT22;3540;53.242;10.408;2022-11-28T00:24:38;5.40;99.90
7000;DHT22;3540;53.242;10.408;2022-11-28T00:27:04;5.40;99.90
7000;DHT22;3540;53.242;10.408;2022-11-28T00:29:30;5.40;99.90
7000;DHT22;3540;53.242;10.408;2022-11-28T00:31:55;5.40;99.90
7000;DHT22;3540;53.242;10.408;2022-11-28T00:34:21;5.40;99.90
7000;DHT22;3540;53.242;10.408;2022-11-28T00:36:47;5.50;99.90
7000;DHT22;3540;53.242;10.408;2022-11-28T00:39:14;5.40;99.90
7000;DHT22;3540;53.242;10.408;2022-11-28T00:41:40;5.40;99.90
7000;DHT22;3540;53.242;10.408;2022-11-28T00:44:07;5.40;99.90
7000;DHT22;3540;53.242;10.408;2022-11-28T00:46:32;5.40;99.90
7000;DHT22;3540;53.242;10.408;2022-11-28T00:48:58;5.50;99.90
7000;DHT22;3540;53.242;10.408;2022-11-28T00:51:29;5.50;99.90
7000;DHT22;3540;53.242;10.408;2022-11-28T00:53:56;5.50;99.90
7000;DHT22;3540;53.242;10.408;2022-11-28T00:56:24;5.40;99.90
7000;DHT22;3540;53.242;10.408;2022-11-28T00:58:50;5.40;99.90
7000;DHT22;3540;53.242;10.408;2022-11-28T01:01:26;5.40;99.90
7000;DHT22;3540;53.242;10.408;2022-11-28T01:03:53;5.40;99.90
7000;DHT22;3540;53.242;10.408;2022-11-28T01:08:50;5.40;99.90
7000;DHT22;3540;53.242;10.408;2022-11-28T01:11:16;5.40;99.90
7000;DHT22;3540;53.242;10.408;2022-11-28T01:13:42;5.40;99.90
7000;DHT22;3540;53.242;10.408;2022-11-28T01:16:08;5.40;99.90
7000;DHT22;3540;53.242;10.408;2022-11-28T01:18:34;5.40;99.90
7000;DHT22;3540;53.242;10.408;2022-11-28T01:21:00;5.40;99.90
7000;DHT22;3540;53.242;10.408;2022-11-28T01:23:26;5.40;99.90
7000;DHT22;3540;53.242;10.408;2022-11-28T01:25:51;5.40;99.90
7000;DHT22;3540;53.242;10.408;2022-11-28T01:28:17;5.40;99.90
7000;DHT22;3540;53.242;10.408;2022-11-28T01:30:42;5.40;99.90
7000;DHT22;3540;53.242;10.408;2022-11-28T01:33:08;5.40;99.90
7000;DHT22;3540;53.242;10.408;2022-11-28T01:35:34;5.40;99.90
7000;DHT22;3540;53.242;10.408;2022-11-28T01:37:59;5.40;99.90
7000;DHT22;3540;53.242;10.408;2022-11-28T01:40:25;5.40;99.90
7000;DHT22;3540;53.242;10.408;2022-11-28T01:42:51;5.40;99.90
7000;DHT22;3540;53.242;10.408;2022-11-28T01:45:28;5.40;99.90
7000;DHT22;3540;53.242;10.408;2022-11-28T01:47:58;5.40;99.90
7000;DHT22;3540;53.242;10.408;2022-11-28T01:50:25;5.40;99.90
7000;DHT22;3540;53.242;10.408;2022-11-28T01:52:55;5.40;99.90
7000;DHT22;3540;53.242;10.408;2022-11-28T01:55:24;5.40;99.90
7000;DHT22;3540;53.242;10.408;2022-11-28T01:57:52;5.40;99.90
7000;DHT22;3540;53.242;10.408;2022-11-28T02:00:19;5.40;99.90
7000;DHT22;3540;53.242;10.408;2022-11-28T02:02:50;5.40;99.90
7000;DHT22;3540;53.242;10.408;2022-11-28T02:05:18;5.30;99.90
7000;DHT22;3540;53.242;10.408;2022-11-28T02:07:45;5.30;99.90
7000;DHT22;3540;53.242;10.408;2022-11-28T02:10:16;5.30;99.90
7000;DHT22;3540;53.242;10.408;2022-11-28T02:23:40;5.30;99.90
7000;DHT22;3540;53.242;10.408;2022-11-28T02:31:24;5.30;99.90
7000;DHT22;3540;53.242;10.408;2022-11-28T02:33:59;5.40;99.90
7000;DHT22;3540;53.242;10.408;2022-11-28T02:38:54;5.40;99.90
7000;DHT22;3540;53.242;10.408;2022-11-28T02:41:44;5.30;99.90
7000;DHT22;3540;53.242;10.408;2022-11-28T02:44:17;5.40;99.90
7000;DHT22;3540;53.242;10.408;2022-11-28T02:51:48;5.30;99.90
7000;DHT22;3540;53.242;10.408;2022-11-28T02:54:17;5.40;99.90
7000;DHT22;3540;53.242;10.408;2022-11-28T02:56:49;5.40;99.90
7000;DHT22;3540;53.242;10.408;2022-11-28T03:02:04;5.40;99.90
7000;DHT22;3540;53.242;10.408;2022-11-28T03:07:45;5.40;99.90
7000;DHT22;3540;53.242;10.408;2022-11-28T03:15:35;5.40;99.90
7000;DHT22;3540;53.242;10.408;2022-11-28T03:18:10;5.40;99.90
7000;DHT22;3540;53.242;10.408;2022-11-28T03:20:59;5.30;99.90
7000;DHT22;3540;53.242;10.408;2022-11-28T03:23:52;5.30;99.90
7000;DHT22;3540;53.242;10.408;2022-11-28T03:26:25;5.40;99.90
7000;DHT22;3540;53.242;10.408;2022-11-28T03:29:06;5.40;99.90
7000;DHT22;3540;53.242;10.408;2022-11-28T03:31:37;5.30;99.90
7000;DHT22;3540;53.242;10.408;2022-11-28T03:34:07;5.30;99.90
7000;DHT22;3540;53.242;10.408;2022-11-28T03:36:39;5.30;99.90
7000;DHT22;3540;53.242;10.408;2022-11-28T03:39:11;5.40;99.90
7000;DHT22;3540;53.242;10.408;2022-11-28T03:42:14;5.30;99.90
7000;DHT22;3540;53.242;10.408;2022-11-28T03:44:38;5.30;99.90
7000;DHT22;3540;53.242;10.408;2022-11-28T03:47:06;5.30;99.90
7000;DHT22;3540;53.242;10.408;2022-11-28T03:49:36;5.30;99.90
7000;DHT22;3540;53.242;10.408;2022-11-28T03:52:05;5.30;99.90
7000;DHT22;3540;53.242;10.408;2022-11-28T03:54:36;5.30;99.90
7000;DHT22;3540;53.242;10.408;2022-11-28T03:59:50;5.30;99.90
7000;DHT22;3540;53.242;10.408;2022-11-28T04:12:49;5.30;99.90
7000;DHT22;3540;53.242;10.408;2022-11-28T04:15:38;5.30;99.90
7000;DHT22;3540;53.242;10.408;2022-11-28T04:18:59;5.30;99.90
7000;DHT22;3540;53.242;10.408;2022-11-28T04:21:28;5.20;99.90
7000;DHT22;3540;53.242;10.408;2022-11-28T04:23:54;5.20;99.90
7000;DHT22;3540;53.242;10.408;2022-11-28T04:26:29;5.10;99.90
7000;DHT22;3540;53.242;10.408;2022-11-28T04:28:57;5.10;99.90
7000;DHT22;3540;53.242;10.408;2022-11-28T04:31:25;5.10;99.90
7000;DHT22;3540;53.242;10.408;2022-11-28T04:33:56;5.10;99.90
7000;DHT22;3540;53.242;10.408;2022-11-28T04:36:24;5.10;99.90
7000;DHT22;3540;53.242;10.408;2022-11-28T04:38:51;5.10;99.90
7000;DHT22;3540;53.242;10.408;2022-11-28T04:44:47;5.10;99.90
7000;DHT22;3540;53.242;10.408;2022-11-28T04:46:51;5.10;99.90
7000;DHT22;3540;53.242;10.408;2022-11-28T04:49:17;5.00;99.90
7000;DHT22;3540;53.242;10.408;2022-11-28T04:59:23;5.00;99.90
7000;DHT22;3540;53.242;10.408;2022-11-28T05:01:50;5.00;99.90
7000;DHT22;3540;53.242;10.408;2022-11-28T05:04:16;5.00;99.90
7000;DHT22;3540;53.242;10.408;2022-11-28T05:06:42;5.00;99.90
7000;DHT22;3540;53.242;10.408;2022-11-28T05:09:11;5.00;99.90
7000;DHT22;3540;53.242;10.408;2022-11-28T05:11:37;4.90;99.90
7000;DHT22;3540;53.242;10.408;2022-11-28T05:14:03;5.00;99.90
7000;DHT22;3540;53.242;10.408;2022-11-28T05:16:29;5.00;99.90
7000;DHT22;3540;53.242;10.408;2022-11-28T05:18:54;4.90;99.90
7000;DHT22;3540;53.242;10.408;2022-11-28T05:21:20;4.90;99.90
7000;DHT22;3540;53.242;10.408;2022-11-28T05:23:46;4.90;99.90
7000;DHT22;3540;53.242;10.408;2022-11-28T05:26:17;4.90;99.90
7000;DHT22;3540;53.242;10.408;2022-11-28T05:28:48;4.90;99.90
7000;DHT22;3540;53.242;10.408;2022-11-28T05:31:17;4.80;99.90
7000;DHT22;3540;53.242;10.408;2022-11-28T05:33:43;4.80;99.90
7000;DHT22;3540;53.242;10.408;2022-11-28T05:36:11;4.80;99.90
7000;DHT22;3540;53.242;10.408;2022-11-28T05:38:37;4.80;99.90
7000;DHT22;3540;53.242;10.408;2022-11-28T05:41:03;4.80;99.90
7000;DHT22;3540;53.242;10.408;2022-11-28T05:43:29;4.80;99.90
7000;DHT22;3540;53.242;10.408;2022-11-28T05:45:55;4.80;99.90
7000;DHT22;3540;53.242;10.408;2022-11-28T05:48:21;4.80;99.90
7000;DHT22;3540;53.242;10.408;2022-11-28T05:50:47;4.80;99.90
7000;DHT22;3540;53.242;10.408;2022-11-28T05:53:17;4.80;99.90
7000;DHT22;3540;53.242;10.408;2022-11-28T05:55:43;4.80;99.90
7000;DHT22;3540;53.242;10.408;2022-11-28T05:58:09;4.80;99.90
7000;DHT22;3540;53.242;10.408;2022-11-28T06:00:35;4.80;99.90
7000;DHT22;3540;53.242;10.408;2022-11-28T06:03:02;4.80;99.90
7000;DHT22;3540;53.242;10.408;2022-11-28T06:05:28;4.80;99.90
7000;DHT22;3540;53.242;10.408;2022-11-28T06:07:53;4.90;99.90
7000;DHT22;3540;53.242;10.408;2022-11-28T06:10:19;4.90;99.90
7000;DHT22;3540;53.242;10.408;2022-11-28T06:12:47;4.90;99.90
7000;DHT22;3540;53.242;10.408;2022-11-28T06:15:12;4.90;99.90
7000;DHT22;3540;53.242;10.408;2022-11-28T06:17:38;4.90;99.90
7000;DHT22;3540;53.242;10.408;2022-11-28T06:20:04;4.90;99.90
7000;DHT22;3540;53.242;10.408;2022-11-28T06:22:32;4.90;99.90
7000;DHT22;3540;53.242;10.408;2022-11-28T06:24:57;4.90;99.90
7000;DHT22;3540;53.242;10.408;2022-11-28T06:27:23;4.90;99.90
7000;DHT22;3540;53.242;10.408;2022-11-28T06:29:49;4.90;99.90
7000;DHT22;3540;53.242;10.408;2022-11-28T06:32:15;4.90;99.90
7000;DHT22;3540;53.242;10.408;2022-11-28T06:34:40;4.80;99.90
7000;DHT22;3540;53.242;10.408;2022-11-28T06:37:06;4.90;99.90
7000;DHT22;3540;53.242;10.408;2022-11-28T06:39:32;4.80;99.90
7000;DHT22;3540;53.242;10.408;2022-11-28T06:41:57;4.80;99.90
7000;DHT22;3540;53.242;10.408;2022-11-28T06:44:23;4.80;99.90
7000;DHT22;3540;53.242;10.408;2022-11-28T06:46:48;4.80;99.90
7000;DHT22;3540;53.242;10.408;2022-11-28T06:49:14;4.80;99.90
7000;DHT22;3540;53.242;10.408;2022-11-28T06:51:40;4.80;99.90
7000;DHT22;3540;53.242;10.408;2022-11-28T06:54:07;4.80;99.90
7000;DHT22;3540;53.242;10.408;2022-11-28T06:56:32;4.80;99.90
7000;DHT22;3540;53.242;10.408;2022-11-28T06:58:59;4.80;99.90
7000;DHT22;3540;53.242;10.408;2022-11-28T07:01:28;4.80;99.90
7000;DHT22;3540;53.242;10.408;2022-11-28T07:03:54;4.80;99.90
7000;DHT22;3540;53.242;10.408;2022-11-28T07:06:22;4.80;99.90
7000;DHT22;3540;53.242;10.408;2022-11-28T07:08:48;4.80;99.90
7000;DHT22;3540;53.242;10.408;2022-11-28T07:13:43;4.80;99.90
7000;DHT22;3540;53.242;10.408;2022-11-28T07:16:32;4.70;99.90
7000;DHT22;3540;53.242;10.408;2022-11-28T07:18:58;4.80;99.90
7000;DHT22;3540;53.242;10.408;2022-11-28T07:21:24;4.80;99.90
7000;DHT22;3540;53.242;10.408;2022-11-28T07:23:51;4.80;99.90
7000;DHT22;3540;53.242;10.408;2022-11-28T07:26:19;4.80;99.90
7000;DHT22;3540;53.242;10.408;2022-11-28T07:28:46;4.80;99.90
7000;DHT22;3540;53.242;10.408;2022-11-28T07:31:14;4.80;99.90
7000;DHT22;3540;53.242;10.408;2022-11-28T07:33:43;4.80;99.90
7000;DHT22;3540;53.242;10.408;2022-11-28T07:36:15;4.80;99.90
7000;DHT22;3540;53.242;10.408;2022-11-28T07:38:41;4.80;99.90
7000;DHT22;3540;53.242;10.408;2022-11-28T07:41:10;4.80;99.90
7000;DHT22;3540;53.242;10.408;2022-11-28T07:43:36;4.80;99.90
7000;DHT22;3540;53.242;10.408;2022-11-28T07:46:04;4.80;99.90
7000;DHT22;3540;53.242;10.408;2022-11-28T07:48:30;4.80;99.90
7000;DHT22;3540;53.242;10.408;2022-11-28T07:50:56;4.90;99.90
7000;DHT22;3540;53.242;10.408;2022-11-28T07:53:22;5.00;99.90
7000;DHT22;3540;53.242;10.408;2022-11-28T07:55:47;4.90;99.90
7000;DHT22;3540;53.242;10.408;2022-11-28T07:58:13;4.90;99.90
7000;DHT22;3540;53.242;10.408;2022-11-28T08:00:39;4.90;99.90
7000;DHT22;3540;53.242;10.408;2022-11-28T08:03:04;5.00;99.90
7000;DHT22;3540;53.242;10.408;2022-11-28T08:05:30;4.90;99.90
7000;DHT22;3540;53.242;10.408;2022-11-28T08:07:56;4.90;99.90
7000;DHT22;3540;53.242;10.408;2022-11-28T08:10:21;4.90;99.90
7000;DHT22;3540;53.242;10.408;2022-11-28T08:12:47;4.90;99.90
7000;DHT22;3540;53.242;10.408;2022-11-28T08:15:13;5.00;99.90
7000;DHT22;3540;53.242;10.408;2022-11-28T08:17:38;5.00;99.90
7000;DHT22;3540;53.242;10.408;2022-11-28T08:20:05;5.10;99.90
7000;DHT22;3540;53.242;10.408;2022-11-28T08:22:31;5.10;99.90
7000;DHT22;3540;53.242;10.408;2022-11-28T08:24:56;5.10;99.90
7000;DHT22;3540;53.242;10.408;2022-11-28T08:27:22;5.10;99.90
7000;DHT22;3540;53.242;10.408;2022-11-28T08:29:48;5.00;99.90
7000;DHT22;3540;53.242;10.408;2022-11-28T08:32:14;5.10;99.90
7000;DHT22;3540;53.242;10.408;2022-11-28T08:34:39;5.10;99.90
7000;DHT22;3540;53.242;10.408;2022-11-28T08:37:05;5.10;99.90
7000;DHT22;3540;53.242;10.408;2022-11-28T08:39:30;5.10;99.90
7000;DHT22;3540;53.242;10.408;2022-11-28T08:41:57;5.10;99.90
7000;DHT22;3540;53.242;10.408;2022-11-28T08:44:23;5.20;99.90
7000;DHT22;3540;53.242;10.408;2022-11-28T08:46:49;5.20;99.90
7000;DHT22;3540;53.242;10.408;2022-11-28T08:49:14;5.20;99.90
7000;DHT22;3540;53.242;10.408;2022-11-28T08:51:40;5.20;99.90
7000;DHT22;3540;53.242;10.408;2022-11-28T08:54:06;5.20;99.90
7000;DHT22;3540;53.242;10.408;2022-11-28T08:56:31;5.20;99.90
7000;DHT22;3540;53.242;10.408;2022-11-28T08:58:57;5.20;99.90
7000;DHT22;3540;53.242;10.408;2022-11-28T09:01:25;5.30;99.90
7000;DHT22;3540;53.242;10.408;2022-11-28T09:03:52;5.30;99.90
7000;DHT22;3540;53.242;10.408;2022-11-28T09:06:20;5.30;99.90
7000;DHT22;3540;53.242;10.408;2022-11-28T09:08:46;5.30;99.90
7000;DHT22;3540;53.242;10.408;2022-11-28T09:11:14;5.30;99.90
7000;DHT22;3540;53.242;10.408;2022-11-28T09:13:41;5.30;99.90
7000;DHT22;3540;53.242;10.408;2022-11-28T09:16:06;5.40;99.90
7000;DHT22;3540;53.242;10.408;2022-11-28T09:18:32;5.40;99.90
7000;DHT22;3540;53.242;10.408;2022-11-28T09:20:59;5.30;99.90
7000;DHT22;3540;53.242;10.408;2022-11-28T09:23:25;5.30;99.90
7000;DHT22;3540;53.242;10.408;2022-11-28T09:25:51;5.30;99.90
7000;DHT22;3540;53.242;10.408;2022-11-28T09:28:17;5.30;99.90
7000;DHT22;3540;53.242;10.408;2022-11-28T09:30:42;5.30;99.90
7000;DHT22;3540;53.242;10.408;2022-11-28T09:33:08;5.30;99.90
7000;DHT22;3540;53.242;10.408;2022-11-28T09:35:37;5.30;99.90
7000;DHT22;3540;53.242;10.408;2022-11-28T09:38:03;5.40;99.90
7000;DHT22;3540;53.242;10.408;2022-11-28T09:40:42;5.30;99.90
7000;DHT22;3540;53.242;10.408;2022-11-28T09:43:24;5.20;99.90
7000;DHT22;3540;53.242;10.408;2022-11-28T09:45:53;5.30;99.90
7000;DHT22;3540;53.242;10.408;2022-11-28T09:48:41;5.30;99.90
7000;DHT22;3540;53.242;10.408;2022-11-28T09:51:27;5.40;99.90
7000;DHT22;3540;53.242;10.408;2022-11-28T09:56:26;5.50;99.90
7000;DHT22;3540;53.242;10.408;2022-11-28T09:58:59;5.40;99.90
7000;DHT22;3540;53.242;10.408;2022-11-28T10:01:48;5.40;99.90
7000;DHT22;3540;53.242;10.408;2022-11-28T10:20:13;5.40;99.90
7000;DHT22;3540;53.242;10.408;2022-11-28T10:27:50;5.50;99.90
7000;DHT22;3540;53.242;10.408;2022-11-28T10:30:25;5.40;99.90
7000;DHT22;3540;53.242;10.408;2022-11-28T10:33:09;5.60;99.90
7000;DHT22;3540;53.242;10.408;2022-11-28T10:35:43;5.40;99.90
7000;DHT22;3540;53.242;10.408;2022-11-28T10:38:12;5.40;99.90
7000;DHT22;3540;53.242;10.408;2022-11-28T10:56:13;5.40;99.90
7000;DHT22;3540;53.242;10.408;2022-11-28T11:01:16;5.40;99.90
7000;DHT22;3540;53.242;10.408;2022-11-28T11:03:42;5.40;99.90
7000;DHT22;3540;53.242;10.408;2022-11-28T11:06:08;5.40;99.90
7000;DHT22;3540;53.242;10.408;2022-11-28T11:08:36;5.40;99.90
7000;DHT22;3540;53.242;10.408;2022-11-28T11:14:08;5.40;99.90
7000;DHT22;3540;53.242;10.408;2022-11-28T11:16:54;5.40;99.90
7000;DHT22;3540;53.242;10.408;2022-11-28T11:19:41;5.40;99.90
7000;DHT22;3540;53.242;10.408;2022-11-28T11:22:22;5.50;99.90
7000;DHT22;3540;53.242;10.408;2022-11-28T11:27:37;5.30;99.90
7000;DHT22;3540;53.242;10.408;2022-11-28T11:32:54;5.20;99.90
7000;DHT22;3540;53.242;10.408;2022-11-28T11:35:23;5.20;99.90
7000;DHT22;3540;53.242;10.408;2022-11-28T11:37:50;5.20;99.90
7000;DHT22;3540;53.242;10.408;2022-11-28T11:40:23;5.30;99.90
7000;DHT22;3540;53.242;10.408;2022-11-28T11:42:58;5.30;99.90
7000;DHT22;3540;53.242;10.408;2022-11-28T11:47:50;5.10;99.90
7000;DHT22;3540;53.242;10.408;2022-11-28T11:50:18;5.20;99.90
7000;DHT22;3540;53.242;10.408;2022-11-28T11:53:00;5.30;99.90
7000;DHT22;3540;53.242;10.408;2022-11-28T11:55:28;5.30;99.90
7000;DHT22;3540;53.242;10.408;2022-11-28T11:57:56;5.30;99.90
7000;DHT22;3540;53.242;10.408;2022-11-28T12:00:31;5.30;99.90
7000;DHT22;3540;53.242;10.408;2022-11-28T12:03:02;5.20;99.90
7000;DHT22;3540;53.242;10.408;2022-11-28T12:06:03;5.20;99.90
7000;DHT22;3540;53.242;10.408;2022-11-28T12:08:34;5.00;99.90
7000;DHT22;3540;53.242;10.408;2022-11-28T12:13:32;5.00;99.90
7000;DHT22;3540;53.242;10.408;2022-11-28T12:16:15;5.10;99.90
7000;DHT22;3540;53.242;10.408;2022-11-28T12:21:58;5.10;99.90
7000;DHT22;3540;53.242;10.408;2022-11-28T12:27:41;5.00;99.90
7000;DHT22;3540;53.242;10.408;2022-11-28T12:32:56;5.10;99.90
7000;DHT22;3540;53.242;10.408;2022-11-28T12:35:31;5.20;99.90
7000;DHT22;3540;53.242;10.408;2022-11-28T12:38:18;5.20;99.90
7000;DHT22;3540;53.242;10.408;2022-11-28T12:46:34;5.20;99.90
7000;DHT22;3540;53.242;10.408;2022-11-28T12:49:13;5.10;99.90
7000;DHT22;3540;53.242;10.408;2022-11-28T12:52:33;5.10;99.90
7000;DHT22;3540;53.242;10.408;2022-11-28T12:55:00;5.00;99.90
7000;DHT22;3540;53.242;10.408;2022-11-28T12:57:33;5.00;99.90
7000;DHT22;3540;53.242;10.408;2022-11-28T13:00:14;5.00;99.90
7000;DHT22;3540;53.242;10.408;2022-11-28T13:08:16;5.00;99.90
7000;DHT22;3540;53.242;10.408;2022-11-28T13:11:08;5.00;99.90
7000;DHT22;3540;53.242;10.408;2022-11-28T13:13:49;5.00;99.90
7000;DHT22;3540;53.242;10.408;2022-11-28T13:16:26;5.00;99.90
7000;DHT22;3540;53.242;10.408;2022-11-28T13:35:12;4.80;99.90
7000;DHT22;3540;53.242;10.408;2022-11-28T13:37:54;4.90;99.90
7000;DHT22;3540;53.242;10.408;2022-11-28T13:40:31;4.90;99.90
7000;DHT22;3540;53.242;10.408;2022-11-28T13:43:06;4.90;99.90
7000;DHT22;3540;53.242;10.408;2022-11-28T13:45:39;4.90;99.90
7000;DHT22;3540;53.242;10.408;2022-11-28T13:53:37;4.90;99.90
7000;DHT22;3540;53.242;10.408;2022-11-28T13:58:57;4.90;99.90
7000;DHT22;3540;53.242;10.408;2022-11-28T14:01:27;4.90;99.90
7000;DHT22;3540;53.242;10.408;2022-11-28T14:06:28;4.80;99.90
7000;DHT22;3540;53.242;10.408;2022-11-28T14:26:33;4.80;99.90
7000;DHT22;3540;53.242;10.408;2022-11-28T14:29:02;4.80;99.90
7000;DHT22;3540;53.242;10.408;2022-11-28T14:34:10;4.80;99.90
7000;DHT22;3540;53.242;10.408;2022-11-28T14:39:47;4.90;99.90
7000;DHT22;3540;53.242;10.408;2022-11-28T14:44:46;4.90;99.90
7000;DHT22;3540;53.242;10.408;2022-11-28T14:47:33;4.80;99.90
7000;DHT22;3540;53.242;10.408;2022-11-28T14:52:41;4.90;99.90
7000;DHT22;3540;53.242;10.408;2022-11-28T14:57:34;4.90;99.90
7000;DHT22;3540;53.242;10.408;2022-11-28T15:00:16;4.90;99.90
7000;DHT22;3540;53.242;10.408;2022-11-28T15:02:46;4.80;99.90
7000;DHT22;3540;53.242;10.408;2022-11-28T15:05:46;4.80;99.90
7000;DHT22;3540;53.242;10.408;2022-11-28T15:15:52;4.80;99.90
7000;DHT22;3540;53.242;10.408;2022-11-28T15:18:19;4.80;99.90
7000;DHT22;3540;53.242;10.408;2022-11-28T15:20:53;4.80;99.90
7000;DHT22;3540;53.242;10.408;2022-11-28T15:23:49;4.90;99.90
7000;DHT22;3540;53.242;10.408;2022-11-28T15:26:22;4.80;99.90
7000;DHT22;3540;53.242;10.408;2022-11-28T15:29:13;4.80;99.90
7000;DHT22;3540;53.242;10.408;2022-11-28T15:31:42;4.80;99.90
7000;DHT22;3540;53.242;10.408;2022-11-28T15:34:08;4.80;99.90
7000;DHT22;3540;53.242;10.408;2022-11-28T15:36:35;4.70;99.90
7000;DHT22;3540;53.242;10.408;2022-11-28T15:39:01;4.80;99.90
7000;DHT22;3540;53.242;10.408;2022-11-28T15:41:28;4.80;99.90
7000;DHT22;3540;53.242;10.408;2022-11-28T15:43:55;4.70;99.90
7000;DHT22;3540;53.242;10.408;2022-11-28T15:46:32;4.70;99.90
7000;DHT22;3540;53.242;10.408;2022-11-28T15:48:58;4.70;99.90
7000;DHT22;3540;53.242;10.408;2022-11-28T15:51:27;4.70;99.90
7000;DHT22;3540;53.242;10.408;2022-11-28T15:53:54;4.80;99.90
7000;DHT22;3540;53.242;10.408;2022-11-28T15:56:20;4.80;99.90
7000;DHT22;3540;53.242;10.408;2022-11-28T15:58:46;4.80;99.90
7000;DHT22;3540;53.242;10.408;2022-11-28T16:01:25;4.70;99.90
7000;DHT22;3540;53.242;10.408;2022-11-28T16:04:09;4.80;99.90
7000;DHT22;3540;53.242;10.408;2022-11-28T16:06:38;4.80;99.90
7000;DHT22;3540;53.242;10.408;2022-11-28T16:11:50;4.80;99.90
7000;DHT22;3540;53.242;10.408;2022-11-28T16:14:22;4.80;99.90
7000;DHT22;3540;53.242;10.408;2022-11-28T16:16:49;4.80;99.90
7000;DHT22;3540;53.242;10.408;2022-11-28T16:19:29;4.70;99.90
7000;DHT22;3540;53.242;10.408;2022-11-28T16:22:05;4.70;99.90
7000;DHT22;3540;53.242;10.408;2022-11-28T16:27:34;4.70;99.90
7000;DHT22;3540;53.242;10.408;2022-11-28T16:30:23;4.80;99.90
7000;DHT22;3540;53.242;10.408;2022-11-28T16:32:47;4.80;99.90
7000;DHT22;3540;53.242;10.408;2022-11-28T16:35:24;4.80;99.90
7000;DHT22;3540;53.242;10.408;2022-11-28T16:37:50;4.70;99.90
7000;DHT22;3540;53.242;10.408;2022-11-28T16:40:21;4.70;99.90
7000;DHT22;3540;53.242;10.408;2022-11-28T16:42:52;4.70;99.90
7000;DHT22;3540;53.242;10.408;2022-11-28T16:47:50;4.70;99.90
7000;DHT22;3540;53.242;10.408;2022-11-28T16:50:20;4.70;99.90
7000;DHT22;3540;53.242;10.408;2022-11-28T16:52:54;4.70;99.90
7000;DHT22;3540;53.242;10.408;2022-11-28T16:58:16;4.60;99.90
7000;DHT22;3540;53.242;10.408;2022-11-28T17:00:59;4.60;99.90
7000;DHT22;3540;53.242;10.408;2022-11-28T17:03:47;4.60;99.90
7000;DHT22;3540;53.242;10.408;2022-11-28T17:06:48;4.60;99.90
7000;DHT22;3540;53.242;10.408;2022-11-28T17:09:10;4.60;99.90
7000;DHT22;3540;53.242;10.408;2022-11-28T17:11:39;4.60;99.90
7000;DHT22;3540;53.242;10.408;2022-11-28T17:14:05;4.60;99.90
7000;DHT22;3540;53.242;10.408;2022-11-28T17:16:34;4.60;99.90
7000;DHT22;3540;53.242;10.408;2022-11-28T17:19:01;4.60;99.90
7000;DHT22;3540;53.242;10.408;2022-11-28T17:24:07;4.60;99.90
7000;DHT22;3540;53.242;10.408;2022-11-28T17:26:37;4.60;99.90
7000;DHT22;3540;53.242;10.408;2022-11-28T17:29:03;4.60;99.90
7000;DHT22;3540;53.242;10.408;2022-11-28T17:31:28;4.60;99.90
7000;DHT22;3540;53.242;10.408;2022-11-28T17:33:54;4.60;99.90
7000;DHT22;3540;53.242;10.408;2022-11-28T17:36:19;4.60;99.90
7000;DHT22;3540;53.242;10.408;2022-11-28T17:38:45;4.60;99.90
7000;DHT22;3540;53.242;10.408;2022-11-28T17:41:12;4.60;99.90
7000;DHT22;3540;53.242;10.408;2022-11-28T17:43:39;4.60;99.90
7000;DHT22;3540;53.242;10.408;2022-11-28T17:46:06;4.50;99.90
7000;DHT22;3540;53.242;10.408;2022-11-28T17:48:31;4.50;99.90
7000;DHT22;3540;53.242;10.408;2022-11-28T17:50:57;4.50;99.90
7000;DHT22;3540;53.242;10.408;2022-11-28T17:53:23;4.50;99.90
7000;DHT22;3540;53.242;10.408;2022-11-28T17:55:50;4.50;99.90
7000;DHT22;3540;53.242;10.408;2022-11-28T17:58:20;4.50;99.90
7000;DHT22;3540;53.242;10.408;2022-11-28T18:00:47;4.50;99.90
7000;DHT22;3540;53.242;10.408;2022-11-28T18:03:14;4.50;99.90
7000;DHT22;3540;53.242;10.408;2022-11-28T18:05:43;4.50;99.90
7000;DHT22;3540;53.242;10.408;2022-11-28T18:08:10;4.60;99.90
7000;DHT22;3540;53.242;10.408;2022-11-28T18:10:36;4.60;99.90
7000;DHT22;3540;53.242;10.408;2022-11-28T18:13:03;4.50;99.90
7000;DHT22;3540;53.242;10.408;2022-11-28T18:15:28;4.50;99.90
7000;DHT22;3540;53.242;10.408;2022-11-28T18:17:54;4.50;99.90
7000;DHT22;3540;53.242;10.408;2022-11-28T18:20:20;4.50;99.90
7000;DHT22;3540;53.242;10.408;2022-11-28T18:22:46;4.50;99.90
7000;DHT22;3540;53.242;10.408;2022-11-28T18:25:12;4.60;99.90
7000;DHT22;3540;53.242;10.408;2022-11-28T18:27:37;4.60;99.90
7000;DHT22;3540;53.242;10.408;2022-11-28T18:30:04;4.60;99.90
7000;DHT22;3540;53.242;10.408;2022-11-28T18:32:29;4.50;99.90
7000;DHT22;3540;53.242;10.408;2022-11-28T18:34:56;4.60;99.90
7000;DHT22;3540;53.242;10.408;2022-11-28T18:37:22;4.60;99.90
7000;DHT22;3540;53.242;10.408;2022-11-28T18:39:47;4.50;99.90
7000;DHT22;3540;53.242;10.408;2022-11-28T18:42:13;4.50;99.90
7000;DHT22;3540;53.242;10.408;2022-11-28T18:44:38;4.50;99.90
7000;DHT22;3540;53.242;10.408;2022-11-28T18:47:04;4.60;99.90
7000;DHT22;3540;53.242;10.408;2022-11-28T18:49:30;4.60;99.90
7000;DHT22;3540;53.242;10.408;2022-11-28T18:51:55;4.60;99.90
7000;DHT22;3540;53.242;10.408;2022-11-28T18:54:21;4.60;99.90
7000;DHT22;3540;53.242;10.408;2022-11-28T18:56:47;4.60;99.90
7000;DHT22;3540;53.242;10.408;2022-11-28T18:59:13;4.60;99.90
7000;DHT22;3540;53.242;10.408;2022-11-28T19:01:39;4.60;99.90
7000;DHT22;3540;53.242;10.408;2022-11-28T19:04:07;4.60;99.90
7000;DHT22;3540;53.242;10.408;2022-11-28T19:06:34;4.70;99.90
7000;DHT22;3540;53.242;10.408;2022-11-28T19:09:03;4.70;99.90
7000;DHT22;3540;53.242;10.408;2022-11-28T19:11:30;4.70;99.90
7000;DHT22;3540;53.242;10.408;2022-11-28T19:13:56;4.60;99.90
7000;DHT22;3540;53.242;10.408;2022-11-28T19:16:27;4.70;99.90
7000;DHT22;3540;53.242;10.408;2022-11-28T19:18:53;4.60;99.90
7000;DHT22;3540;53.242;10.408;2022-11-28T19:21:22;4.60;99.90
7000;DHT22;3540;53.242;10.408;2022-11-28T19:23:48;4.60;99.90
7000;DHT22;3540;53.242;10.408;2022-11-28T19:26:18;4.60;99.90
7000;DHT22;3540;53.242;10.408;2022-11-28T19:28:44;4.60;99.90
7000;DHT22;3540;53.242;10.408;2022-11-28T19:33:40;4.60;99.90
7000;DHT22;3540;53.242;10.408;2022-11-28T19:36:08;4.60;99.90
7000;DHT22;3540;53.242;10.408;2022-11-28T19:38:35;4.60;99.90
7000;DHT22;3540;53.242;10.408;2022-11-28T19:41:05;4.60;99.90
7000;DHT22;3540;53.242;10.408;2022-11-28T19:43:31;4.60;99.90
7000;DHT22;3540;53.242;10.408;2022-11-28T19:45:57;4.60;99.90
7000;DHT22;3540;53.242;10.408;2022-11-28T19:48:23;4.60;99.90
7000;DHT22;3540;53.242;10.408;2022-11-28T19:50:50;4.50;99.90
7000;DHT22;3540;53.242;10.408;2022-11-28T19:53:16;4.60;99.90
7000;DHT22;3540;53.242;10.408;2022-11-28T19:55:42;4.60;99.90
7000;DHT22;3540;53.242;10.408;2022-11-28T19:58:09;4.60;99.90